createdAt,value
2023-04-18T00:04:58.774Z,31.8
2023-04-18T00:09:58.534Z,25.0
2023-04-18T00:14:58.664Z,29.3
2023-04-18T00:24:58.643Z,25.8
2023-04-18T00:29:58.546Z,25.9
2023-04-18T00:34:58.608Z,32.9
2023-04-18T00:39:58.540Z,36.5
2023-04-18T00:44:58.640Z,30.1
2023-04-18T00:49:58.540Z,30.1
2023-04-18T00:54:58.606Z,28.3
2023-04-18T00:59:58.544Z,29.5
2023-04-18T01:04:58.637Z,30.8
2023-04-18T01:09:58.542Z,26.6
2023-04-18T01:14:58.604Z,34.0
2023-04-18T01:19:58.563Z,34.0
2023-04-18T01:24:58.636Z,35.4
2023-04-18T01:29:58.561Z,25.4
2023-04-18T01:34:58.606Z,32.7
2023-04-18T01:39:58.537Z,24.0
2023-04-18T01:44:58.660Z,34.6
2023-04-18T01:49:58.550Z,34.6
2023-04-18T01:54:58.637Z,27.7
2023-04-18T01:59:58.564Z,36.3
2023-04-18T02:04:58.640Z,36.4
2023-04-18T02:09:58.566Z,30.6
2023-04-18T02:14:58.656Z,30.6
2023-04-18T02:19:58.554Z,30.6
2023-04-18T02:24:58.652Z,39.7
2023-04-18T02:29:58.555Z,33.1
2023-04-18T02:34:58.655Z,31.4
2023-04-18T02:39:58.556Z,26.0
2023-04-18T02:44:58.650Z,26.0
2023-04-18T02:49:58.562Z,36.6
2023-04-18T02:54:58.667Z,29.7
2023-04-18T02:59:58.552Z,28.6
2023-04-18T03:04:58.668Z,27.3
2023-04-18T03:09:58.562Z,29.0
2023-04-18T03:14:58.650Z,29.0
2023-04-18T03:19:58.557Z,32.8
2023-04-18T03:24:58.650Z,35.1
2023-04-18T03:29:58.546Z,32.7
2023-04-18T03:34:58.650Z,34.1
2023-04-18T03:39:58.565Z,25.4
2023-04-18T03:44:58.670Z,25.4
2023-04-18T03:49:58.572Z,21.0
2023-04-18T03:54:58.667Z,26.0
2023-04-18T03:59:58.577Z,21.1
2023-04-18T04:04:58.708Z,26.4
2023-04-18T04:09:58.582Z,30.2
2023-04-18T04:14:58.676Z,30.2
2023-04-18T04:19:58.581Z,25.6
2023-04-18T04:24:58.649Z,26.8
2023-04-18T04:29:58.587Z,28.1
2023-04-18T04:34:58.643Z,26.2
2023-04-18T04:39:58.600Z,26.2
2023-04-18T04:44:58.755Z,26.2
2023-04-18T04:49:58.584Z,30.4
2023-04-18T04:54:58.648Z,28.1
2023-04-18T04:59:58.607Z,27.8
2023-04-18T05:04:58.653Z,28.0
2023-04-18T05:09:58.573Z,29.8
2023-04-18T05:14:58.690Z,29.8
2023-04-18T05:19:58.596Z,26.7
2023-04-18T05:24:58.726Z,25.5
2023-04-18T05:29:58.591Z,24.9
2023-04-18T05:34:58.690Z,20.2
2023-04-18T05:40:00.585Z,21.6
2023-04-18T05:44:58.718Z,21.6
2023-04-18T05:49:58.609Z,20.8
2023-04-18T05:54:58.670Z,16.3
2023-04-18T05:59:58.606Z,19.9
2023-04-18T06:04:58.885Z,20.4
2023-04-18T06:09:58.596Z,19.5
2023-04-18T06:14:58.732Z,19.5
2023-04-18T06:19:58.599Z,21.9
2023-04-18T06:24:58.672Z,23.8
2023-04-18T06:29:58.622Z,21.8
2023-04-18T06:34:58.690Z,19.3
2023-04-18T06:39:58.612Z,25.2
2023-04-18T06:44:58.714Z,25.2
2023-04-18T06:49:58.610Z,17.8
2023-04-18T06:54:58.742Z,20.7
2023-04-18T06:59:58.621Z,21.7
2023-04-18T07:04:58.696Z,22.4
2023-04-18T07:09:58.632Z,22.4
2023-04-18T07:14:58.680Z,22.4
2023-04-18T07:19:58.626Z,20.8
2023-04-18T07:24:58.695Z,20.1
2023-04-18T07:29:58.629Z,16.9
2023-04-18T07:34:58.715Z,19.8
2023-04-18T07:39:58.626Z,17.0
2023-04-18T07:44:58.699Z,17.0
2023-04-18T07:49:58.630Z,16.1
2023-04-18T07:54:58.718Z,17.8
2023-04-18T07:59:58.616Z,16.6
2023-04-18T08:04:58.898Z,15.2
2023-04-18T08:09:58.620Z,16.4
2023-04-18T08:14:58.688Z,16.4
2023-04-18T08:19:58.623Z,13.1
2023-04-18T08:25:04.958Z,14.3
2023-04-18T08:29:58.639Z,11.7
2023-04-18T08:34:58.727Z,11.6
2023-04-18T08:39:58.620Z,11.1
2023-04-18T08:44:58.722Z,11.1
2023-04-18T08:49:58.640Z,18.2
2023-04-18T08:54:58.732Z,11.0
2023-04-18T08:59:58.631Z,12.3
2023-04-18T09:04:58.688Z,10.5
2023-04-18T09:09:58.660Z,13.7
2023-04-18T09:14:58.725Z,13.7
2023-04-18T09:19:58.630Z,13.4
2023-04-18T09:24:58.755Z,9.7
2023-04-18T09:29:58.638Z,10.1
2023-04-18T09:34:58.799Z,14.0
2023-04-18T09:39:58.642Z,13.7
2023-04-18T09:44:58.859Z,13.7
2023-04-18T09:49:58.665Z,11.6
2023-04-18T09:54:58.734Z,11.7
2023-04-18T09:59:58.658Z,9.6
2023-04-18T10:04:58.791Z,11.4
2023-04-18T10:09:58.657Z,9.8
2023-04-18T10:14:58.724Z,9.8
2023-04-18T10:19:58.672Z,9.4
2023-04-18T10:24:58.766Z,9.1
2023-04-18T10:34:58.763Z,10.2
2023-04-18T10:39:58.681Z,11.2
2023-04-18T10:44:58.772Z,11.2
2023-04-18T10:49:58.673Z,12.8
2023-04-18T10:54:59.182Z,15.7
2023-04-18T10:59:58.670Z,13.9
2023-04-18T11:04:58.774Z,9.2
2023-04-18T11:09:58.666Z,17.5
2023-04-18T11:14:58.783Z,17.5
2023-04-18T11:19:58.667Z,11.3
2023-04-18T11:24:58.738Z,12.6
2023-04-18T11:29:58.709Z,15.7
2023-04-18T11:34:58.740Z,15.9
2023-04-18T11:39:58.687Z,13.7
2023-04-18T11:44:58.795Z,13.7
2023-04-18T11:49:58.688Z,11.4
2023-04-18T11:54:58.779Z,14.8
2023-04-18T11:59:58.704Z,12.3
2023-04-18T12:04:59.213Z,10.4
2023-04-18T12:09:58.728Z,15.1
2023-04-18T12:14:58.795Z,15.1
2023-04-18T12:19:58.708Z,13.6
2023-04-18T12:24:58.754Z,9.8
2023-04-18T12:29:58.727Z,8.4
2023-04-18T12:34:58.782Z,12.3
2023-04-18T12:39:58.707Z,12.6
2023-04-18T12:44:58.770Z,12.6
2023-04-18T12:49:58.713Z,8.6
2023-04-18T12:54:58.809Z,9.3
2023-04-18T12:59:58.731Z,8.8
2023-04-18T13:04:58.807Z,12.7
2023-04-18T13:09:58.873Z,9.7
2023-04-18T13:14:58.774Z,9.7
2023-04-18T13:19:58.715Z,9.1
2023-04-18T13:24:58.816Z,11.1
2023-04-18T13:29:58.715Z,11.6
2023-04-18T13:34:58.816Z,13.1
2023-04-18T13:39:58.749Z,13.5
2023-04-18T13:44:58.787Z,13.5
2023-04-18T13:49:58.735Z,14.8
2023-04-18T13:54:58.834Z,13.6
2023-04-18T13:59:58.722Z,11.2
2023-04-18T14:04:58.983Z,12.2
2023-04-18T14:09:58.750Z,12.4
2023-04-18T14:14:58.831Z,12.4
2023-04-18T14:19:58.775Z,10.2
2023-04-18T14:24:58.865Z,12.0
2023-04-18T14:29:58.752Z,11.5
2023-04-18T14:34:58.861Z,12.7
2023-04-18T14:39:58.714Z,14.8
2023-04-18T14:44:58.861Z,14.8
2023-04-18T14:49:58.824Z,13.0
2023-04-18T14:54:58.836Z,13.0
2023-04-18T14:59:58.786Z,11.9
2023-04-18T15:04:58.981Z,8.9
2023-04-18T15:09:58.768Z,12.9
2023-04-18T15:14:58.864Z,12.9
2023-04-18T15:19:58.775Z,13.7
2023-04-18T15:24:58.884Z,12.4
2023-04-18T15:29:58.767Z,12.7
2023-04-18T15:34:58.885Z,10.8
2023-04-18T15:39:58.778Z,15.7
2023-04-18T15:44:58.881Z,15.7
2023-04-18T15:49:58.792Z,7.8
2023-04-18T15:54:58.884Z,12.5
2023-04-18T15:59:58.772Z,8.6
2023-04-18T16:04:58.876Z,7.4
2023-04-18T16:09:58.757Z,5.6
2023-04-18T16:14:58.841Z,5.6
2023-04-18T16:19:58.779Z,7.7
2023-04-18T16:24:58.875Z,8.0
2023-04-18T16:29:58.778Z,8.6
2023-04-18T16:34:58.901Z,15.0
2023-04-18T16:39:58.792Z,11.0
2023-04-18T16:44:58.892Z,11.0
2023-04-18T16:49:58.757Z,14.0
2023-04-18T16:54:58.854Z,11.8
2023-04-18T16:59:58.827Z,9.4
2023-04-18T17:04:58.885Z,13.9
2023-04-18T17:09:58.796Z,10.1
2023-04-18T17:14:58.907Z,10.1
2023-04-18T17:19:58.798Z,12.0
2023-04-18T17:24:58.898Z,14.5
2023-04-18T17:29:58.802Z,19.3
2023-04-18T17:34:58.900Z,12.5
2023-04-18T17:39:58.798Z,16.7
2023-04-18T17:44:58.910Z,16.7
2023-04-18T17:49:58.793Z,10.1
2023-04-18T17:54:58.899Z,12.4
2023-04-18T17:59:58.820Z,12.4
2023-04-18T18:04:58.908Z,14.5
2023-04-18T18:09:58.823Z,15.8
2023-04-18T18:14:58.909Z,15.8
2023-04-18T18:19:58.810Z,15.4
2023-04-18T18:24:58.919Z,15.6
2023-04-18T18:29:58.800Z,17.0
2023-04-18T18:34:58.912Z,15.6
2023-04-18T18:39:58.826Z,13.2
2023-04-18T18:44:58.875Z,13.2
2023-04-18T18:49:58.824Z,14.9
2023-04-18T18:54:58.918Z,16.6
2023-04-18T18:59:58.819Z,18.1
2023-04-18T19:04:59.171Z,14.8
2023-04-18T19:09:58.812Z,29.7
2023-04-18T19:14:58.911Z,29.7
2023-04-18T19:19:58.819Z,16.8
2023-04-18T19:24:58.910Z,15.4
2023-04-18T19:29:58.835Z,16.7
2023-04-18T19:34:58.906Z,16.8
2023-04-18T19:39:58.821Z,15.2
2023-04-18T19:44:58.897Z,15.2
2023-04-18T19:49:58.857Z,15.4
2023-04-18T19:54:58.892Z,11.6
2023-04-18T19:59:58.860Z,19.1
2023-04-18T20:04:59.067Z,16.1
2023-04-18T20:09:58.841Z,18.7
2023-04-18T20:14:59.033Z,18.7
2023-04-18T20:19:58.844Z,18.0
2023-04-18T20:24:58.945Z,11.9
2023-04-18T20:29:58.859Z,13.5
2023-04-18T20:34:58.951Z,21.7
2023-04-18T20:39:58.861Z,14.3
2023-04-18T20:44:58.949Z,14.3
2023-04-18T20:49:58.878Z,14.4
2023-04-18T20:54:58.959Z,20.4
2023-04-18T20:59:58.859Z,13.4
2023-04-18T21:04:58.925Z,20.1
2023-04-18T21:09:58.866Z,16.2
2023-04-18T21:14:58.960Z,16.2
2023-04-18T21:19:58.871Z,12.1
2023-04-18T21:24:58.973Z,20.4
2023-04-18T21:29:58.886Z,16.7
2023-04-18T21:34:58.960Z,19.7
2023-04-18T21:39:58.898Z,14.5
2023-04-18T21:44:58.993Z,14.5
2023-04-18T21:49:58.892Z,24.4
2023-04-18T21:54:58.977Z,13.1
2023-04-18T21:59:58.891Z,24.1
2023-04-18T22:04:58.991Z,18.8
2023-04-18T22:09:58.902Z,20.8
2023-04-18T22:14:58.990Z,20.8
2023-04-18T22:19:58.900Z,22.0
2023-04-18T22:24:58.997Z,23.1
2023-04-18T22:29:58.905Z,22.1
2023-04-18T22:34:59.021Z,23.1
2023-04-18T22:39:58.926Z,17.4
2023-04-18T22:44:58.999Z,17.4
2023-04-18T22:49:58.937Z,21.9
2023-04-18T22:54:59.009Z,23.7
2023-04-18T22:59:58.920Z,19.9
2023-04-18T23:04:59.029Z,20.0
2023-04-18T23:09:58.945Z,21.5
2023-04-18T23:14:59.010Z,21.5
2023-04-18T23:19:58.928Z,21.3
2023-04-18T23:24:59.013Z,17.5
2023-04-18T23:29:58.929Z,21.9
2023-04-18T23:34:59.014Z,14.6
2023-04-18T23:39:58.923Z,21.0
2023-04-18T23:44:59.026Z,21.0
2023-04-18T23:49:58.961Z,17.1
2023-04-18T23:54:59.027Z,28.7
2023-04-18T23:59:58.936Z,19.0
